createdAt,value
2023-04-16T00:00:46.400Z,4.60
2023-04-16T00:03:14.523Z,4.45
2023-04-16T00:05:42.685Z,4.10
2023-04-16T00:08:10.539Z,4.28
2023-04-16T00:10:38.577Z,4.18
2023-04-16T00:13:06.299Z,4.28
2023-04-16T00:15:35.436Z,4.70
2023-04-16T00:18:03.446Z,4.25
2023-04-16T00:20:31.463Z,4.18
2023-04-16T00:22:59.829Z,3.97
2023-04-16T00:25:27.610Z,3.60
2023-04-16T00:27:55.813Z,3.47
2023-04-16T00:30:23.914Z,3.67
2023-04-16T00:32:53.018Z,3.45
2023-04-16T00:35:20.992Z,4.05
2023-04-16T00:37:48.744Z,3.70
2023-04-16T00:40:16.521Z,2.88
2023-04-16T00:42:44.485Z,3.60
2023-04-16T00:45:12.638Z,3.22
2023-04-16T00:47:40.709Z,3.40
2023-04-16T00:50:11.090Z,3.65
2023-04-16T00:52:39.410Z,3.35
2023-04-16T00:55:07.918Z,3.58
2023-04-16T00:57:35.774Z,3.38
2023-04-16T01:00:07.051Z,3.83
2023-04-16T01:02:35.606Z,3.42
2023-04-16T01:05:03.729Z,3.25
2023-04-16T01:07:33.282Z,3.22
2023-04-16T01:10:01.344Z,3.10
2023-04-16T01:12:29.294Z,3.20
2023-04-16T01:14:57.376Z,3.40
2023-04-16T01:17:25.171Z,3.10
2023-04-16T01:19:52.975Z,2.75
2023-04-16T01:22:22.482Z,3.22
2023-04-16T01:24:50.198Z,3.30
2023-04-16T01:27:18.210Z,3.35
2023-04-16T01:29:45.964Z,3.50
2023-04-16T01:32:13.728Z,3.72
2023-04-16T01:34:41.855Z,3.47
2023-04-16T01:37:09.649Z,3.55
2023-04-16T01:39:39.044Z,3.67
2023-04-16T01:42:06.769Z,3.65
2023-04-16T01:44:34.771Z,3.53
2023-04-16T01:47:02.758Z,3.78
2023-04-16T01:49:30.954Z,3.92
2023-04-16T01:51:58.684Z,4.07
2023-04-16T01:54:26.742Z,3.70
2023-04-16T01:56:55.795Z,3.58
2023-04-16T01:59:23.794Z,3.45
2023-04-16T02:01:51.633Z,4.05
2023-04-16T02:04:19.466Z,3.50
2023-04-16T02:06:47.456Z,3.20
2023-04-16T02:09:15.598Z,3.65
2023-04-16T02:11:43.602Z,3.95
2023-04-16T02:14:12.888Z,3.60
2023-04-16T02:16:40.798Z,3.70
2023-04-16T02:19:08.714Z,3.42
2023-04-16T02:21:36.856Z,3.97
2023-04-16T02:24:04.848Z,4.00
2023-04-16T02:26:32.652Z,4.32
2023-04-16T02:29:00.652Z,4.43
2023-04-16T02:31:30.684Z,4.25
2023-04-16T02:33:58.538Z,4.18
2023-04-16T02:36:27.640Z,4.05
2023-04-16T02:38:55.470Z,4.63
2023-04-16T02:41:23.217Z,4.35
2023-04-16T02:43:50.959Z,4.60
2023-04-16T02:46:18.959Z,4.35
2023-04-16T02:48:48.105Z,4.68
2023-04-16T02:51:15.956Z,5.03
2023-04-16T02:53:45.928Z,5.32
2023-04-16T02:56:13.838Z,6.22
2023-04-16T02:58:41.858Z,6.63
2023-04-16T03:01:09.922Z,6.55
2023-04-16T03:03:37.688Z,7.50
2023-04-16T03:06:06.837Z,7.60
2023-04-16T03:08:34.581Z,10.98
2023-04-16T03:11:02.421Z,11.25
2023-04-16T03:13:30.417Z,12.70
2023-04-16T03:16:00.819Z,12.32
2023-04-16T03:18:28.824Z,13.10
2023-04-16T03:20:58.779Z,12.35
2023-04-16T03:23:28.396Z,13.02
2023-04-16T03:25:56.466Z,11.90
2023-04-16T03:28:24.313Z,12.93
2023-04-16T03:30:52.995Z,13.40
2023-04-16T03:33:20.842Z,12.43
2023-04-16T03:35:48.602Z,11.77
2023-04-16T03:38:16.469Z,13.02
2023-04-16T03:40:46.275Z,11.80
2023-04-16T03:43:14.029Z,13.75
2023-04-16T03:45:44.706Z,13.93
2023-04-16T03:48:12.607Z,13.48
2023-04-16T03:50:40.415Z,14.57
2023-04-16T03:53:08.391Z,13.23
2023-04-16T03:55:36.236Z,12.77
2023-04-16T03:58:05.496Z,12.23
2023-04-16T04:00:33.233Z,12.27
2023-04-16T04:03:01.150Z,13.43
2023-04-16T04:05:29.443Z,12.70
2023-04-16T04:07:57.185Z,12.45
2023-04-16T04:10:24.998Z,12.18
2023-04-16T04:12:52.744Z,11.95
2023-04-16T04:15:22.029Z,12.20
2023-04-16T04:17:49.813Z,12.77
2023-04-16T04:20:17.764Z,11.50
2023-04-16T04:22:45.558Z,10.77
2023-04-16T04:25:13.340Z,10.40
2023-04-16T04:27:41.226Z,11.77
2023-04-16T04:30:09.523Z,10.20
2023-04-16T04:32:38.683Z,10.63
2023-04-16T04:35:07.424Z,10.82
2023-04-16T04:37:35.243Z,10.93
2023-04-16T04:40:03.600Z,10.68
2023-04-16T04:42:31.609Z,9.63
2023-04-16T04:44:59.349Z,9.75
2023-04-16T04:47:27.112Z,10.63
2023-04-16T04:49:56.215Z,10.48
2023-04-16T04:52:23.980Z,10.48
2023-04-16T04:54:52.018Z,9.85
2023-04-16T04:57:19.788Z,9.80
2023-04-16T04:59:47.529Z,9.60
2023-04-16T05:02:15.821Z,9.10
2023-04-16T05:04:43.633Z,9.05
2023-04-16T05:07:12.796Z,9.05
2023-04-16T05:09:40.829Z,8.50
2023-04-16T05:12:08.628Z,9.60
2023-04-16T05:14:37.447Z,8.82
2023-04-16T05:17:05.364Z,9.98
2023-04-16T05:19:33.443Z,9.50
2023-04-16T05:22:02.231Z,10.30
2023-04-16T05:24:31.378Z,10.77
2023-04-16T05:26:59.125Z,11.65
2023-04-16T05:29:27.251Z,10.57
2023-04-16T05:31:55.017Z,13.25
2023-04-16T05:34:22.968Z,11.98
2023-04-16T05:36:50.748Z,11.68
2023-04-16T05:39:19.772Z,11.93
2023-04-16T05:41:48.844Z,12.40
2023-04-16T05:44:16.905Z,11.10
2023-04-16T05:46:44.660Z,10.73
2023-04-16T05:49:12.452Z,11.20
2023-04-16T05:51:40.331Z,9.52
2023-04-16T05:54:08.446Z,9.10
2023-04-16T05:56:36.273Z,8.45
2023-04-16T05:59:05.544Z,9.57
2023-04-16T06:01:34.401Z,8.35
2023-04-16T06:04:02.892Z,8.80
2023-04-16T06:06:30.889Z,9.07
2023-04-16T06:08:58.873Z,8.45
2023-04-16T06:11:27.542Z,8.60
2023-04-16T06:13:55.386Z,8.93
2023-04-16T06:16:24.618Z,8.82
2023-04-16T06:18:52.407Z,8.05
2023-04-16T06:21:20.327Z,8.30
2023-04-16T06:23:48.359Z,8.77
2023-04-16T06:26:16.154Z,8.70
2023-04-16T06:28:45.900Z,8.18
2023-04-16T06:31:19.725Z,8.25
2023-04-16T06:33:49.672Z,8.38
2023-04-16T06:36:19.917Z,8.95
2023-04-16T06:39:01.376Z,8.98
2023-04-16T06:41:29.485Z,8.30
2023-04-16T06:43:57.300Z,8.98
2023-04-16T06:46:25.468Z,7.30
2023-04-16T06:48:54.663Z,8.68
2023-04-16T06:51:22.701Z,8.23
2023-04-16T06:53:50.553Z,7.78
2023-04-16T06:56:18.617Z,8.30
2023-04-16T06:58:46.348Z,8.25
2023-04-16T07:01:14.247Z,8.95
2023-04-16T07:03:42.417Z,8.85
2023-04-16T07:06:11.695Z,8.35
2023-04-16T07:08:39.907Z,8.40
2023-04-16T07:11:07.777Z,8.88
2023-04-16T07:13:35.962Z,9.07
2023-04-16T07:16:03.964Z,9.07
2023-04-16T07:18:31.706Z,9.90
2023-04-16T07:20:59.932Z,9.35
2023-04-16T07:23:29.294Z,10.13
2023-04-16T07:25:57.307Z,9.90
2023-04-16T07:28:25.303Z,9.20
2023-04-16T07:30:53.289Z,9.50
2023-04-16T07:33:21.086Z,10.27
2023-04-16T07:35:49.093Z,9.38
2023-04-16T07:38:30.859Z,8.60
2023-04-16T07:41:00.003Z,8.70
2023-04-16T07:43:27.761Z,8.85
2023-04-16T07:45:55.560Z,8.80
2023-04-16T07:48:23.400Z,9.05
2023-04-16T07:50:51.233Z,7.72
2023-04-16T07:53:19.063Z,8.10
2023-04-16T07:55:46.837Z,8.05
2023-04-16T07:58:16.092Z,6.60
2023-04-16T08:00:44.100Z,6.97
2023-04-16T08:03:12.205Z,6.20
2023-04-16T08:05:40.068Z,6.10
2023-04-16T08:08:07.861Z,5.72
2023-04-16T08:10:35.613Z,5.60
2023-04-16T08:13:03.837Z,5.80
2023-04-16T08:15:32.991Z,5.72
2023-04-16T08:18:01.177Z,5.25
2023-04-16T08:20:28.999Z,5.32
2023-04-16T08:22:57.094Z,4.88
2023-04-16T08:25:24.839Z,4.60
2023-04-16T08:27:52.805Z,4.88
2023-04-16T08:30:21.970Z,5.38
2023-04-16T08:32:51.265Z,4.85
2023-04-16T08:35:19.091Z,5.13
2023-04-16T08:37:46.939Z,4.90
2023-04-16T08:40:14.738Z,4.50
2023-04-16T08:42:46.973Z,4.88
2023-04-16T08:45:15.487Z,4.78
2023-04-16T08:47:46.499Z,4.47
2023-04-16T08:50:17.185Z,5.00
2023-04-16T08:52:47.358Z,4.30
2023-04-16T08:55:17.993Z,4.10
2023-04-16T08:57:48.792Z,4.78
2023-04-16T09:00:18.358Z,4.65
2023-04-16T09:02:46.375Z,5.30
2023-04-16T09:05:18.279Z,4.68
2023-04-16T09:07:46.513Z,4.50
2023-04-16T09:10:15.484Z,4.90
2023-04-16T09:12:43.624Z,6.00
2023-04-16T09:15:12.072Z,5.35
2023-04-16T09:17:40.702Z,5.15
2023-04-16T09:20:10.945Z,5.03
2023-04-16T09:22:41.200Z,5.38
2023-04-16T09:25:09.462Z,6.80
2023-04-16T09:27:37.517Z,5.85
2023-04-16T09:30:22.078Z,5.50
2023-04-16T09:32:50.172Z,6.38
2023-04-16T09:35:19.173Z,7.20
2023-04-16T09:37:56.834Z,7.13
2023-04-16T09:40:30.392Z,7.40
2023-04-16T09:42:58.668Z,7.95
2023-04-16T09:45:26.595Z,6.75
2023-04-16T09:48:03.296Z,7.47
2023-04-16T09:50:31.138Z,8.93
2023-04-16T09:53:02.481Z,8.50
2023-04-16T09:55:30.354Z,7.80
2023-04-16T09:58:01.692Z,8.80
2023-04-16T10:00:30.135Z,8.57
2023-04-16T10:03:04.346Z,8.93
2023-04-16T10:05:32.430Z,8.13
2023-04-16T10:08:02.442Z,8.38
2023-04-16T10:10:30.738Z,8.00
2023-04-16T10:12:59.178Z,8.57
2023-04-16T10:15:27.007Z,8.75
2023-04-16T10:17:55.180Z,8.63
2023-04-16T10:20:23.652Z,9.68
2023-04-16T10:22:51.941Z,9.10
2023-04-16T10:25:21.138Z,11.10
2023-04-16T10:27:49.282Z,10.55
2023-04-16T10:30:18.055Z,11.77
2023-04-16T10:32:46.425Z,11.65
2023-04-16T10:35:16.737Z,11.48
2023-04-16T10:37:45.576Z,12.48
2023-04-16T10:40:24.894Z,13.35
2023-04-16T10:42:59.286Z,12.38
2023-04-16T10:45:33.598Z,12.27
2023-04-16T10:48:05.426Z,13.23
2023-04-16T10:50:35.623Z,11.35
2023-04-16T10:53:18.962Z,11.00
2023-04-16T10:58:29.366Z,11.13
2023-04-16T11:00:59.996Z,9.77
2023-04-16T11:03:31.202Z,10.70
2023-04-16T11:06:11.319Z,10.60
2023-04-16T11:08:53.351Z,9.60
2023-04-16T11:11:22.506Z,8.88
2023-04-16T11:13:55.689Z,8.55
2023-04-16T11:16:23.747Z,8.20
2023-04-16T11:18:51.961Z,8.65
2023-04-16T11:21:20.600Z,8.20
2023-04-16T11:23:49.371Z,10.07
2023-04-16T11:26:27.765Z,11.27
2023-04-16T11:28:57.690Z,11.35
2023-04-16T11:31:27.261Z,11.52
2023-04-16T11:33:56.659Z,12.60
2023-04-16T11:36:27.342Z,12.95
2023-04-16T11:39:02.067Z,13.82
2023-04-16T11:41:31.531Z,12.13
2023-04-16T11:44:00.657Z,11.80
2023-04-16T11:46:40.930Z,12.02
2023-04-16T11:49:09.407Z,11.80
2023-04-16T11:51:40.906Z,13.13
2023-04-16T11:54:11.672Z,11.90
2023-04-16T11:56:40.312Z,12.38
2023-04-16T11:59:10.835Z,11.30
2023-04-16T12:01:39.949Z,11.98
2023-04-16T12:04:08.643Z,11.23
2023-04-16T12:06:36.765Z,12.40
2023-04-16T12:09:19.740Z,11.75
2023-04-16T12:11:47.584Z,13.30
2023-04-16T12:14:16.800Z,13.57
2023-04-16T12:16:44.783Z,12.68
2023-04-16T12:19:13.344Z,14.60
2023-04-16T12:21:42.019Z,14.27
2023-04-16T12:24:10.521Z,17.38
2023-04-16T12:26:42.602Z,15.43
2023-04-16T12:29:21.577Z,15.43
2023-04-16T12:31:49.898Z,15.13
2023-04-16T12:34:18.870Z,15.20
2023-04-16T12:36:47.363Z,16.65
2023-04-16T12:39:15.876Z,15.32
2023-04-16T12:41:44.343Z,15.90
2023-04-16T12:44:13.280Z,17.13
2023-04-16T12:46:43.114Z,16.48
2023-04-16T12:49:11.878Z,19.20
2023-04-16T12:51:40.795Z,15.73
2023-04-16T12:54:08.641Z,16.08
2023-04-16T12:56:36.733Z,16.88
2023-04-16T12:59:04.922Z,17.05
2023-04-16T13:01:34.494Z,15.07
2023-04-16T13:04:04.168Z,15.57
2023-04-16T13:06:32.623Z,15.05
2023-04-16T13:09:00.720Z,16.20
2023-04-16T13:11:28.703Z,14.82
2023-04-16T13:13:56.899Z,16.63
2023-04-16T13:16:25.133Z,16.27
2023-04-16T13:18:53.181Z,16.83
2023-04-16T13:21:23.873Z,15.43
2023-04-16T13:23:51.822Z,17.10
2023-04-16T13:26:19.623Z,15.65
2023-04-16T13:28:47.419Z,16.95
2023-04-16T13:31:15.796Z,15.45
2023-04-16T13:33:43.648Z,15.23
2023-04-16T13:36:11.463Z,14.82
2023-04-16T13:38:40.621Z,13.95
2023-04-16T13:41:08.386Z,14.05
2023-04-16T13:43:36.187Z,15.30
2023-04-16T13:46:04.012Z,13.82
2023-04-16T13:48:32.762Z,14.80
2023-04-16T13:51:00.605Z,15.85
2023-04-16T13:53:28.682Z,15.10
2023-04-16T13:55:57.790Z,15.65
2023-04-16T13:58:25.856Z,15.63
2023-04-16T14:00:53.700Z,15.75
2023-04-16T14:03:21.770Z,15.35
2023-04-16T14:05:49.834Z,13.95
2023-04-16T14:08:17.592Z,15.13
2023-04-16T14:10:45.574Z,13.93
2023-04-16T14:13:14.772Z,13.27
2023-04-16T14:15:42.989Z,13.73
2023-04-16T14:18:10.785Z,14.77
2023-04-16T14:20:40.042Z,13.18
2023-04-16T14:23:08.033Z,14.13
2023-04-16T14:25:35.931Z,13.82
2023-04-16T14:28:03.952Z,14.27
2023-04-16T14:30:33.113Z,14.65
2023-04-16T14:33:00.935Z,14.32
2023-04-16T14:35:29.381Z,14.23
2023-04-16T14:37:57.859Z,14.13
2023-04-16T14:40:25.619Z,15.82
2023-04-16T14:42:53.400Z,15.63
2023-04-16T14:45:21.193Z,16.75
2023-04-16T14:47:51.480Z,15.13
2023-04-16T14:50:19.589Z,16.98
2023-04-16T14:52:47.504Z,16.50
2023-04-16T14:55:15.283Z,16.10
2023-04-16T14:57:43.168Z,16.70
2023-04-16T15:00:12.198Z,15.75
2023-04-16T15:02:40.465Z,17.63
2023-04-16T15:05:10.992Z,17.48
2023-04-16T15:07:38.961Z,17.38
2023-04-16T15:10:07.687Z,17.90
2023-04-16T15:12:35.721Z,16.73
2023-04-16T15:15:03.882Z,17.92
2023-04-16T15:17:32.084Z,17.20
2023-04-16T15:20:00.679Z,16.23
2023-04-16T15:22:29.880Z,14.05
2023-04-16T15:24:58.090Z,16.63
2023-04-16T15:27:25.927Z,16.58
2023-04-16T15:29:54.044Z,16.13
2023-04-16T15:32:21.952Z,17.23
2023-04-16T15:34:49.899Z,15.77
2023-04-16T15:37:17.788Z,15.93
2023-04-16T15:39:46.901Z,14.68
2023-04-16T15:42:14.733Z,14.15
2023-04-16T15:44:42.907Z,14.13
2023-04-16T15:47:10.834Z,14.05
2023-04-16T15:49:38.870Z,13.55
2023-04-16T15:52:06.870Z,14.43
2023-04-16T15:54:34.726Z,12.18
2023-04-16T15:57:03.888Z,12.30
2023-04-16T15:59:32.634Z,12.68
2023-04-16T16:02:01.460Z,11.57
2023-04-16T16:04:29.510Z,10.43
2023-04-16T16:06:57.544Z,12.27
2023-04-16T16:09:26.741Z,11.27
2023-04-16T16:11:54.925Z,10.55
2023-04-16T16:14:24.240Z,10.07
2023-04-16T16:16:52.051Z,10.73
2023-04-16T16:19:19.857Z,11.02
2023-04-16T16:21:47.608Z,10.98
2023-04-16T16:24:15.765Z,10.15
2023-04-16T16:26:43.572Z,9.82
2023-04-16T16:29:11.680Z,9.75
2023-04-16T16:31:41.157Z,10.05
2023-04-16T16:34:12.665Z,9.20
2023-04-16T16:36:46.531Z,9.70
2023-04-16T16:39:14.523Z,10.05
2023-04-16T16:41:42.989Z,9.52
2023-04-16T16:44:10.965Z,9.85
2023-04-16T16:46:38.779Z,9.40
2023-04-16T16:49:09.895Z,10.55
2023-04-16T16:51:37.862Z,10.30
2023-04-16T16:54:05.775Z,11.23
2023-04-16T16:56:33.590Z,10.73
2023-04-16T16:59:04.830Z,10.68
2023-04-16T17:01:32.834Z,12.10
2023-04-16T17:04:01.096Z,11.25
2023-04-16T17:06:30.318Z,10.65
2023-04-16T17:08:58.210Z,11.18
2023-04-16T17:11:27.234Z,12.43
2023-04-16T17:13:55.735Z,13.32
2023-04-16T17:16:24.022Z,12.13
2023-04-16T17:18:51.908Z,12.43
2023-04-16T17:21:19.709Z,12.45
2023-04-16T17:23:48.954Z,12.25
2023-04-16T17:26:16.750Z,12.48
2023-04-16T17:28:44.524Z,11.10
2023-04-16T17:31:15.207Z,11.23
2023-04-16T17:33:43.485Z,10.68
2023-04-16T17:36:11.248Z,10.35
2023-04-16T17:38:39.053Z,11.45
2023-04-16T17:41:08.282Z,12.50
2023-04-16T17:43:36.080Z,11.88
2023-04-16T17:46:06.062Z,11.45
2023-04-16T17:48:33.861Z,10.32
2023-04-16T17:51:09.581Z,11.75
2023-04-16T17:53:37.455Z,11.38
2023-04-16T17:56:05.552Z,12.32
2023-04-16T17:58:35.404Z,11.95
2023-04-16T18:01:03.442Z,13.57
2023-04-16T18:03:31.483Z,13.68
2023-04-16T18:05:59.570Z,12.95
2023-04-16T18:08:27.720Z,14.07
2023-04-16T18:10:57.028Z,13.88
2023-04-16T18:13:25.479Z,15.10
2023-04-16T18:15:54.725Z,14.15
2023-04-16T18:18:22.548Z,12.95
2023-04-16T18:21:01.721Z,12.88
2023-04-16T18:23:29.857Z,13.40
2023-04-16T18:25:58.665Z,11.77
2023-04-16T18:28:27.852Z,13.48
2023-04-16T18:30:59.144Z,11.23
2023-04-16T18:33:50.002Z,12.30
2023-04-16T18:36:15.434Z,11.48
2023-04-16T18:38:57.088Z,11.43
2023-04-16T18:41:28.579Z,11.98
2023-04-16T18:43:56.572Z,10.70
2023-04-16T18:46:27.010Z,13.43
2023-04-16T18:48:54.911Z,12.55
2023-04-16T18:51:22.781Z,14.35
2023-04-16T18:53:50.931Z,12.65
2023-04-16T18:56:18.753Z,13.25
2023-04-16T18:58:49.426Z,12.52
2023-04-16T19:01:17.897Z,14.07
2023-04-16T19:03:47.458Z,14.75
2023-04-16T19:06:16.613Z,13.38
2023-04-16T19:08:44.397Z,13.35
2023-04-16T19:11:12.274Z,14.35
2023-04-16T19:13:40.110Z,15.63
2023-04-16T19:16:11.589Z,14.45
2023-04-16T19:18:39.813Z,15.60
2023-04-16T19:21:10.878Z,14.45
2023-04-16T19:23:38.813Z,16.60
2023-04-16T19:26:06.897Z,14.85
2023-04-16T19:28:34.737Z,16.58
2023-04-16T19:31:02.880Z,14.68
2023-04-16T19:33:31.385Z,15.57
2023-04-16T19:36:03.189Z,15.45
2023-04-16T19:38:33.841Z,16.27
2023-04-16T19:41:03.885Z,15.32
2023-04-16T19:43:31.985Z,15.20
2023-04-16T19:46:00.016Z,14.25
2023-04-16T19:48:27.900Z,15.18
2023-04-16T19:50:55.705Z,14.82
2023-04-16T19:53:24.560Z,16.10
2023-04-16T19:55:53.664Z,15.77
2023-04-16T19:58:21.948Z,16.23
2023-04-16T20:00:49.747Z,14.73
2023-04-16T20:03:17.643Z,15.38
2023-04-16T20:05:48.634Z,16.58
2023-04-16T20:08:16.557Z,15.73
2023-04-16T20:10:44.638Z,16.05
2023-04-16T20:13:13.813Z,16.85
2023-04-16T20:15:42.125Z,16.73
2023-04-16T20:18:09.912Z,16.52
2023-04-16T20:20:37.997Z,16.45
2023-04-16T20:23:05.845Z,16.73
2023-04-16T20:25:33.731Z,15.82
2023-04-16T20:28:01.459Z,15.77
2023-04-16T20:30:38.840Z,15.52
2023-04-16T20:33:07.389Z,16.05
2023-04-16T20:35:35.649Z,16.27
2023-04-16T20:38:03.556Z,16.67
2023-04-16T20:40:31.457Z,15.27
2023-04-16T20:43:02.065Z,15.93
2023-04-16T20:45:37.924Z,15.57
2023-04-16T20:48:06.184Z,16.40
2023-04-16T20:50:34.055Z,15.70
2023-04-16T20:53:01.886Z,15.70
2023-04-16T20:55:29.758Z,15.55
2023-04-16T20:57:57.559Z,17.15
2023-04-16T21:00:25.473Z,15.95
2023-04-16T21:02:54.698Z,14.52
2023-04-16T21:05:24.039Z,15.30
2023-04-16T21:07:53.974Z,14.02
2023-04-16T21:10:23.172Z,14.25
2023-04-16T21:12:50.986Z,14.00
2023-04-16T21:15:18.951Z,14.32
2023-04-16T21:17:46.828Z,14.73
2023-04-16T21:20:16.194Z,14.63
2023-04-16T21:22:43.977Z,13.73
2023-04-16T21:25:12.089Z,13.77
2023-04-16T21:27:40.101Z,13.88
2023-04-16T21:30:08.699Z,14.18
2023-04-16T21:32:36.492Z,14.57
2023-04-16T21:35:04.990Z,12.68
2023-04-16T21:37:34.112Z,13.60
2023-04-16T21:40:01.895Z,13.15
2023-04-16T21:42:31.540Z,13.65
2023-04-16T21:44:59.352Z,12.52
2023-04-16T21:47:27.370Z,13.43
2023-04-16T21:49:55.395Z,13.45
2023-04-16T21:52:23.654Z,12.93
2023-04-16T21:54:53.099Z,13.52
2023-04-16T21:57:20.873Z,13.23
2023-04-16T21:59:48.637Z,12.63
2023-04-16T22:02:16.704Z,12.32
2023-04-16T22:04:44.518Z,13.65
2023-04-16T22:07:12.820Z,12.20
2023-04-16T22:09:40.841Z,12.13
2023-04-16T22:12:10.462Z,12.07
2023-04-16T22:14:44.005Z,13.30
2023-04-16T22:17:15.195Z,13.07
2023-04-16T22:19:43.246Z,13.00
2023-04-16T22:22:11.199Z,12.52
2023-04-16T22:24:39.020Z,12.38
2023-04-16T22:27:06.835Z,13.85
2023-04-16T22:29:35.933Z,12.85
2023-04-16T22:32:03.759Z,12.65
2023-04-16T22:34:31.529Z,13.88
2023-04-16T22:37:01.652Z,13.13
2023-04-16T22:39:29.516Z,13.48
2023-04-16T22:41:57.294Z,13.23
2023-04-16T22:44:25.278Z,13.70
2023-04-16T22:46:54.631Z,13.90
2023-04-16T22:49:22.382Z,13.88
2023-04-16T22:51:50.418Z,14.40
2023-04-16T22:54:18.156Z,14.40
2023-04-16T22:56:47.162Z,12.50
2023-04-16T22:59:14.951Z,13.60
2023-04-16T23:01:43.274Z,14.45
2023-04-16T23:04:12.437Z,13.07
2023-04-16T23:06:40.675Z,13.38
2023-04-16T23:09:08.584Z,13.18
2023-04-16T23:11:36.494Z,13.55
2023-04-16T23:14:05.200Z,13.13
2023-04-16T23:16:32.955Z,14.02
2023-04-16T23:19:01.193Z,12.95
2023-04-16T23:21:31.221Z,13.85
2023-04-16T23:23:59.170Z,12.00
2023-04-16T23:26:27.061Z,13.82
2023-04-16T23:28:54.854Z,13.15
2023-04-16T23:31:22.636Z,12.40
2023-04-16T23:33:50.467Z,12.43
2023-04-16T23:36:18.250Z,13.77
2023-04-16T23:38:49.110Z,12.95
2023-04-16T23:41:16.850Z,12.27
2023-04-16T23:43:44.641Z,12.27
2023-04-16T23:46:12.432Z,10.38
2023-04-16T23:48:40.184Z,12.30
2023-04-16T23:51:07.942Z,13.65
2023-04-16T23:53:36.569Z,12.18
2023-04-16T23:56:05.891Z,13.00
2023-04-16T23:58:33.864Z,13.00
